SWR138 LSZH-VHHH
Flight info
| Callsign | SWR138 |
|---|---|
| Flight time | N/A |
| Altitude | 29000 |
| Route | DEGES Z2 UMVEG DCT DIMLO DCT INVED DCT SOKRU/N0490F310 DCT DINRO DCT UDROS DCT ABSAX DCT KARDE DCT REBLO M11 RODAR A909 TUGTA/N0488F330 A909 ABDAN A846 RANAH L750 MERUN G452 LKN A201 BOGEP/N0492F350 A201 LSO A599 LINSO/K0907S1070 A599 POU R473 SIERA |
| Aircraft | B77W/H-SDE1E2E3FGHIJ2J3J4J5M1RWXY/LB1D1 |
Departure
| Time | 2026-05-06 20:48 |
|---|---|
| Airport | Zürich Airport (LSZH) |
Arrival
| Time | N/A |
|---|---|
| Airport | Hong Kong International Airport (VHHH) |
| Time | Latitude | Longitude | Altitude | Speed | Heading |
|---|---|---|---|---|---|
| 2026-05-06 19:24 | 47.46169 | 8.55684 | 1408 ft | 0 kts | 186° |
| 2026-05-06 19:25 | 47.46166 | 8.55684 | 1406 ft | 0 kts | 186° |
| 2026-05-06 20:26 | 47.46177 | 8.55686 | 1406 ft | 3 kts | 186° |
| 2026-05-06 20:26 | 47.46199 | 8.55689 | 1406 ft | 2 kts | 186° |
| 2026-05-06 20:27 | 47.46217 | 8.55692 | 1408 ft | 3 kts | 185° |
| 2026-05-06 20:27 | 47.46235 | 8.55689 | 1405 ft | 3 kts | 130° |
| 2026-05-06 20:27 | 47.46244 | 8.55661 | 1414 ft | 3 kts | 97° |
| 2026-05-06 20:27 | 47.46246 | 8.55629 | 1414 ft | 3 kts | 96° |
| 2026-05-06 20:28 | 47.46248 | 8.55601 | 1413 ft | 1 kts | 96° |
| 2026-05-06 20:31 | 47.46248 | 8.55609 | 1413 ft | 3 kts | 96° |
| 2026-05-06 20:31 | 47.46245 | 8.55644 | 1414 ft | 4 kts | 96° |
| 2026-05-06 20:32 | 47.46243 | 8.55680 | 1414 ft | 4 kts | 96° |
| 2026-05-06 20:32 | 47.46240 | 8.55716 | 1413 ft | 4 kts | 96° |
| 2026-05-06 20:32 | 47.46238 | 8.55752 | 1411 ft | 4 kts | 96° |
| 2026-05-06 20:32 | 47.46235 | 8.55788 | 1410 ft | 4 kts | 96° |
| 2026-05-06 20:33 | 47.46233 | 8.55824 | 1407 ft | 4 kts | 96° |
| 2026-05-06 20:33 | 47.46229 | 8.55869 | 1408 ft | 6 kts | 96° |
| 2026-05-06 20:33 | 47.46225 | 8.55931 | 1415 ft | 6 kts | 96° |
| 2026-05-06 20:33 | 47.46210 | 8.55988 | 1414 ft | 6 kts | 123° |
| 2026-05-06 20:34 | 47.46181 | 8.56034 | 1419 ft | 6 kts | 136° |
| 2026-05-06 20:34 | 47.46150 | 8.56077 | 1417 ft | 6 kts | 137° |
| 2026-05-06 20:34 | 47.46119 | 8.56120 | 1417 ft | 6 kts | 137° |
| 2026-05-06 20:34 | 47.46091 | 8.56158 | 1420 ft | 2 kts | 137° |
| 2026-05-06 20:35 | 47.46090 | 8.56159 | 1419 ft | 0 kts | 137° |
| 2026-05-06 20:44 | 47.46084 | 8.56167 | 1413 ft | 3 kts | 137° |
| 2026-05-06 20:45 | 47.46058 | 8.56203 | 1416 ft | 6 kts | 137° |
| 2026-05-06 20:45 | 47.46037 | 8.56250 | 1421 ft | 6 kts | 100° |
| 2026-05-06 20:45 | 47.46053 | 8.56302 | 1420 ft | 6 kts | 47° |
| 2026-05-06 20:45 | 47.46080 | 8.56344 | 1416 ft | 6 kts | 47° |
| 2026-05-06 20:46 | 47.46106 | 8.56387 | 1420 ft | 6 kts | 47° |
| 2026-05-06 20:46 | 47.46136 | 8.56416 | 1417 ft | 5 kts | 9° |
| 2026-05-06 20:46 | 47.46162 | 8.56398 | 1420 ft | 0 kts | 317° |
| 2026-05-06 20:47 | 47.46174 | 8.56383 | 1418 ft | 11 kts | 317° |
| 2026-05-06 20:47 | 47.46351 | 8.56143 | 1411 ft | 72 kts | 317° |
| 2026-05-06 20:47 | 47.46928 | 8.55353 | 1404 ft | 150 kts | 317° |
| 2026-05-06 20:47 | 47.47851 | 8.54096 | 1507 ft | 205 kts | 317° |
| 2026-05-06 20:48 | 47.48911 | 8.52672 | 2409 ft | 208 kts | 318° |
| 2026-05-06 20:48 | 47.50101 | 8.51434 | 3449 ft | 209 kts | 325° |
| 2026-05-06 20:48 | 47.51363 | 8.50357 | 4021 ft | 212 kts | 325° |
| 2026-05-06 20:48 | 47.52549 | 8.49083 | 4286 ft | 210 kts | 307° |
| 2026-05-06 20:49 | 47.53280 | 8.47268 | 4701 ft | 204 kts | 284° |
| 2026-05-06 20:49 | 47.53475 | 8.45224 | 5056 ft | 202 kts | 264° |
| 2026-05-06 20:49 | 47.53247 | 8.43190 | 5470 ft | 200 kts | 252° |
| 2026-05-06 20:49 | 47.52704 | 8.41285 | 5847 ft | 202 kts | 245° |
| 2026-05-06 20:50 | 47.52082 | 8.39418 | 6231 ft | 203 kts | 240° |
| 2026-05-06 20:50 | 47.51111 | 8.37926 | 6518 ft | 208 kts | 212° |
| 2026-05-06 20:50 | 47.49691 | 8.37325 | 6831 ft | 219 kts | 186° |
| 2026-05-06 20:50 | 47.48177 | 8.37843 | 7080 ft | 234 kts | 155° |
| 2026-05-06 20:51 | 47.46980 | 8.39532 | 7364 ft | 245 kts | 127° |
| 2026-05-06 20:51 | 47.46093 | 8.41706 | 7653 ft | 249 kts | 121° |
| 2026-05-06 20:51 | 47.45676 | 8.44228 | 7827 ft | 263 kts | 92° |
| 2026-05-06 20:51 | 47.45699 | 8.46996 | 7924 ft | 278 kts | 91° |
| 2026-05-06 20:52 | 47.45713 | 8.49937 | 8069 ft | 294 kts | 92° |
| 2026-05-06 20:52 | 47.45711 | 8.53023 | 8329 ft | 307 kts | 92° |
| 2026-05-06 20:52 | 47.45737 | 8.56225 | 8761 ft | 315 kts | 89° |
| 2026-05-06 20:52 | 47.45862 | 8.59484 | 9320 ft | 319 kts | 88° |
| 2026-05-06 20:53 | 47.45999 | 8.62764 | 9944 ft | 320 kts | 88° |
| 2026-05-06 20:53 | 47.46126 | 8.66081 | 10347 ft | 331 kts | 89° |
| 2026-05-06 20:53 | 47.46256 | 8.69576 | 10470 ft | 350 kts | 88° |
| 2026-05-06 20:53 | 47.46394 | 8.73252 | 10641 ft | 368 kts | 88° |
| 2026-05-06 20:54 | 47.46536 | 8.77119 | 10851 ft | 384 kts | 88° |
| 2026-05-06 20:54 | 47.46679 | 8.81103 | 11307 ft | 393 kts | 89° |
| 2026-05-06 20:54 | 47.46519 | 8.85141 | 11673 ft | 397 kts | 102° |
| 2026-05-06 20:54 | 47.45918 | 8.89131 | 12326 ft | 398 kts | 106° |
| 2026-05-06 20:55 | 47.45263 | 8.93089 | 13077 ft | 395 kts | 102° |
| 2026-05-06 20:55 | 47.44953 | 8.97142 | 13695 ft | 401 kts | 94° |
| 2026-05-06 20:55 | 47.44882 | 9.01281 | 14301 ft | 404 kts | 92° |
| 2026-05-06 20:55 | 47.44833 | 9.05453 | 14879 ft | 407 kts | 93° |
| 2026-05-06 20:56 | 47.44731 | 9.09645 | 15491 ft | 409 kts | 94° |
| 2026-05-06 20:56 | 47.44575 | 9.13849 | 16132 ft | 410 kts | 95° |
| 2026-05-06 20:56 | 47.44394 | 9.18005 | 16751 ft | 412 kts | 96° |
| 2026-05-06 20:56 | 47.44210 | 9.22300 | 17271 ft | 417 kts | 95° |
| 2026-05-06 20:57 | 47.44071 | 9.26623 | 17757 ft | 423 kts | 94° |
| 2026-05-06 20:57 | 47.43958 | 9.30832 | 18288 ft | 426 kts | 94° |
| 2026-05-06 20:57 | 47.43840 | 9.35296 | 18830 ft | 428 kts | 94° |
| 2026-05-06 20:57 | 47.43718 | 9.39741 | 19366 ft | 430 kts | 95° |
| 2026-05-06 20:58 | 47.43588 | 9.44231 | 19882 ft | 433 kts | 95° |
| 2026-05-06 20:58 | 47.43454 | 9.48688 | 20362 ft | 436 kts | 95° |
| 2026-05-06 20:58 | 47.43319 | 9.53168 | 20832 ft | 439 kts | 95° |
| 2026-05-06 20:58 | 47.43178 | 9.57692 | 21303 ft | 442 kts | 95° |
| 2026-05-06 20:59 | 47.43037 | 9.62175 | 21757 ft | 444 kts | 96° |
| 2026-05-06 20:59 | 47.42891 | 9.66740 | 22249 ft | 446 kts | 96° |
| 2026-05-06 20:59 | 47.42741 | 9.71324 | 22729 ft | 448 kts | 96° |
| 2026-05-06 20:59 | 47.42589 | 9.75935 | 23189 ft | 451 kts | 96° |
| 2026-05-06 21:00 | 47.42434 | 9.80569 | 23602 ft | 453 kts | 96° |
| 2026-05-06 21:00 | 47.42278 | 9.85233 | 23958 ft | 456 kts | 97° |
| 2026-05-06 21:00 | 47.42121 | 9.89934 | 24258 ft | 460 kts | 97° |
| 2026-05-06 21:00 | 47.41959 | 9.94677 | 24555 ft | 464 kts | 97° |
| 2026-05-06 21:01 | 47.41793 | 9.99458 | 24855 ft | 468 kts | 97° |
| 2026-05-06 21:01 | 47.41630 | 10.04126 | 25134 ft | 471 kts | 97° |